createdAt,value
2022-09-06T00:01:58.388Z,100.00
2022-09-06T00:04:26.276Z,100.00
2022-09-06T00:06:54.161Z,100.00
2022-09-06T00:09:21.924Z,100.00
2022-09-06T00:11:49.721Z,100.00
2022-09-06T00:14:17.515Z,100.00
2022-09-06T00:16:45.330Z,100.00
2022-09-06T00:19:13.123Z,100.00
2022-09-06T00:21:41.392Z,100.00
2022-09-06T00:24:09.500Z,100.00
2022-09-06T00:26:37.450Z,100.00
2022-09-06T00:29:05.186Z,100.00
2022-09-06T00:31:33.922Z,100.00
2022-09-06T00:34:01.803Z,100.00
2022-09-06T00:36:29.626Z,100.00
2022-09-06T00:38:57.639Z,100.00
2022-09-06T00:41:25.568Z,100.00
2022-09-06T00:43:53.369Z,100.00
2022-09-06T00:46:24.294Z,100.00
2022-09-06T00:48:54.589Z,100.00
2022-09-06T00:51:22.497Z,100.00
2022-09-06T00:53:50.825Z,100.00
2022-09-06T00:56:18.629Z,100.00
2022-09-06T00:58:46.430Z,100.00
2022-09-06T01:01:14.354Z,100.00
2022-09-06T01:03:42.268Z,100.00
2022-09-06T01:06:19.252Z,100.00
2022-09-06T01:09:37.526Z,100.00
2022-09-06T01:12:24.251Z,100.00
2022-09-06T01:15:04.079Z,100.00
2022-09-06T01:17:55.042Z,100.00
2022-09-06T01:20:28.471Z,100.00
2022-09-06T01:23:11.623Z,100.00
2022-09-06T01:26:03.740Z,100.00
2022-09-06T01:28:47.337Z,100.00
2022-09-06T01:31:49.334Z,100.00
2022-09-06T01:34:25.918Z,100.00
2022-09-06T01:37:09.890Z,100.00
2022-09-06T01:39:39.043Z,100.00
2022-09-06T01:42:24.177Z,100.00
2022-09-06T01:44:56.663Z,100.00
2022-09-06T01:47:59.205Z,100.00
2022-09-06T01:50:44.814Z,100.00
2022-09-06T01:53:26.067Z,100.00
2022-09-06T01:56:07.093Z,100.00
2022-09-06T01:58:46.849Z,100.00
2022-09-06T02:01:29.709Z,100.00
2022-09-06T02:04:19.417Z,100.00
2022-09-06T02:06:50.586Z,100.00
2022-09-06T02:09:22.548Z,100.00
2022-09-06T02:12:03.234Z,100.00
2022-09-06T02:14:40.550Z,100.00
2022-09-06T02:17:09.781Z,100.00
2022-09-06T02:19:41.042Z,100.00
2022-09-06T02:22:10.315Z,100.00
2022-09-06T02:24:38.526Z,100.00
2022-09-06T02:27:06.351Z,100.00
2022-09-06T02:29:34.589Z,100.00
2022-09-06T02:32:12.859Z,100.00
2022-09-06T02:34:41.207Z,100.00
2022-09-06T02:37:09.216Z,100.00
2022-09-06T02:39:37.035Z,100.00
2022-09-06T02:42:06.131Z,100.00
2022-09-06T02:44:33.991Z,100.00
2022-09-06T02:47:02.676Z,100.00
2022-09-06T02:49:31.574Z,100.00
2022-09-06T02:51:59.473Z,100.00
2022-09-06T02:54:27.500Z,100.00
2022-09-06T02:56:55.344Z,100.00
2022-09-06T02:59:23.145Z,100.00
2022-09-06T03:01:51.014Z,100.00
2022-09-06T03:04:18.823Z,100.00
2022-09-06T03:06:46.643Z,100.00
2022-09-06T03:09:14.675Z,100.00
2022-09-06T03:11:42.394Z,100.00
2022-09-06T03:14:10.214Z,100.00
2022-09-06T03:16:39.649Z,100.00
2022-09-06T03:19:07.476Z,100.00
2022-09-06T03:21:35.285Z,100.00
2022-09-06T03:24:03.262Z,100.00
2022-09-06T03:26:31.781Z,100.00
2022-09-06T03:28:59.590Z,100.00
2022-09-06T03:31:27.341Z,100.00
2022-09-06T03:33:55.107Z,100.00
2022-09-06T03:36:23.462Z,100.00
2022-09-06T03:38:52.309Z,100.00
2022-09-06T03:41:20.177Z,100.00
2022-09-06T03:43:47.946Z,100.00
2022-09-06T03:46:15.874Z,100.00
2022-09-06T03:48:43.835Z,100.00
2022-09-06T03:51:11.623Z,100.00
2022-09-06T03:53:39.403Z,100.00
2022-09-06T03:56:07.498Z,100.00
2022-09-06T03:58:35.326Z,100.00
2022-09-06T04:01:10.559Z,100.00
2022-09-06T04:03:38.620Z,100.00
2022-09-06T04:06:06.925Z,100.00
2022-09-06T04:08:34.932Z,100.00
2022-09-06T04:11:02.825Z,100.00
2022-09-06T04:13:31.054Z,100.00
2022-09-06T04:15:59.005Z,100.00
2022-09-06T04:18:27.153Z,100.00
2022-09-06T04:20:57.074Z,100.00
2022-09-06T04:23:26.093Z,100.00
2022-09-06T04:25:55.180Z,100.00
2022-09-06T04:28:23.225Z,100.00
2022-09-06T04:30:55.643Z,100.00
2022-09-06T04:33:26.963Z,100.00
2022-09-06T04:35:55.819Z,100.00
2022-09-06T04:38:27.629Z,100.00
2022-09-06T04:40:56.721Z,100.00
2022-09-06T04:43:24.628Z,100.00
2022-09-06T04:45:52.582Z,100.00
2022-09-06T04:48:20.541Z,100.00
2022-09-06T04:50:48.331Z,100.00
2022-09-06T04:53:16.179Z,100.00
2022-09-06T04:55:44.026Z,100.00
2022-09-06T04:58:11.799Z,100.00
2022-09-06T05:00:40.931Z,100.00
2022-09-06T05:03:08.876Z,100.00
2022-09-06T05:05:36.749Z,100.00
2022-09-06T05:08:04.691Z,100.00
2022-09-06T05:10:32.469Z,100.00
2022-09-06T05:13:00.265Z,100.00
2022-09-06T05:15:28.066Z,100.00
2022-09-06T05:18:04.308Z,100.00
2022-09-06T05:20:32.663Z,100.00
2022-09-06T05:23:00.466Z,100.00
2022-09-06T05:25:28.277Z,100.00
2022-09-06T05:27:56.160Z,100.00
2022-09-06T05:30:24.433Z,100.00
2022-09-06T05:32:52.367Z,100.00
2022-09-06T05:35:20.282Z,100.00
2022-09-06T05:37:48.072Z,100.00
2022-09-06T05:40:15.852Z,100.00
2022-09-06T05:42:43.692Z,100.00
2022-09-06T05:45:11.692Z,100.00
2022-09-06T05:47:39.666Z,100.00
2022-09-06T05:50:08.156Z,100.00
2022-09-06T05:52:36.400Z,100.00
2022-09-06T05:55:04.857Z,100.00
2022-09-06T05:57:32.654Z,100.00
2022-09-06T06:00:01.132Z,100.00
2022-09-06T06:02:29.028Z,99.73
2022-09-06T06:04:57.083Z,99.59
2022-09-06T06:07:24.812Z,99.80
2022-09-06T06:09:52.762Z,99.35
2022-09-06T06:12:20.503Z,99.27
2022-09-06T06:14:48.312Z,99.46
2022-09-06T06:17:16.249Z,99.25
2022-09-06T06:19:44.050Z,99.45
2022-09-06T06:22:11.928Z,99.83
2022-09-06T06:24:44.196Z,99.41
2022-09-06T06:27:11.994Z,100.00
2022-09-06T06:29:39.793Z,99.56
2022-09-06T06:32:07.914Z,99.98
2022-09-06T06:34:35.820Z,99.55
2022-09-06T06:37:03.864Z,99.56
2022-09-06T06:39:31.699Z,99.19
2022-09-06T06:42:05.275Z,98.91
2022-09-06T06:44:33.057Z,98.58
2022-09-06T06:47:03.134Z,97.39
2022-09-06T06:49:31.412Z,97.20
2022-09-06T06:51:59.264Z,96.09
2022-09-06T06:54:27.120Z,96.74
2022-09-06T06:56:55.084Z,95.65
2022-09-06T06:59:22.963Z,96.36
2022-09-06T07:01:51.771Z,97.61
2022-09-06T07:04:24.179Z,99.17
2022-09-06T07:12:31.830Z,98.95
2022-09-06T07:14:59.716Z,98.89
2022-09-06T07:17:27.494Z,98.92
2022-09-06T07:22:43.175Z,98.32
2022-09-06T07:25:11.386Z,97.98
2022-09-06T07:27:46.498Z,97.42
2022-09-06T07:30:15.327Z,95.99
2022-09-06T07:32:43.159Z,96.18
2022-09-06T07:35:11.156Z,96.89
2022-09-06T07:37:38.989Z,95.76
2022-09-06T07:40:07.214Z,94.63
2022-09-06T07:42:36.310Z,94.21
2022-09-06T07:45:05.778Z,92.95
2022-09-06T07:53:12.944Z,88.00
2022-09-06T07:55:56.913Z,88.13
2022-09-06T07:58:24.817Z,86.88
2022-09-06T08:00:52.712Z,84.87
2022-09-06T08:03:21.269Z,83.30
2022-09-06T08:11:24.291Z,80.22
2022-09-06T08:13:52.958Z,75.83
2022-09-06T08:16:21.173Z,73.80
2022-09-06T08:18:53.270Z,75.02
2022-09-06T08:21:21.282Z,73.38
2022-09-06T08:23:53.914Z,73.46
2022-09-06T08:26:22.471Z,74.16
2022-09-06T08:28:56.878Z,75.48
2022-09-06T08:31:24.844Z,76.05
2022-09-06T08:33:52.982Z,76.24
2022-09-06T08:36:20.886Z,76.23
2022-09-06T08:38:48.834Z,75.82
2022-09-06T08:41:26.202Z,75.35
2022-09-06T08:47:00.773Z,72.12
2022-09-06T08:49:30.930Z,71.08
2022-09-06T08:52:54.345Z,71.28
2022-09-06T08:56:14.364Z,74.43
2022-09-06T08:58:53.662Z,72.60
2022-09-06T09:01:26.511Z,74.29
2022-09-06T09:03:54.514Z,75.61
2022-09-06T09:06:22.292Z,77.22
2022-09-06T09:09:16.203Z,77.88
2022-09-06T09:11:45.023Z,77.30
2022-09-06T09:14:21.874Z,79.01
2022-09-06T09:16:57.015Z,78.55
2022-09-06T09:19:25.005Z,79.88
2022-09-06T09:21:53.090Z,80.79
2022-09-06T09:24:21.140Z,81.82
2022-09-06T09:26:58.144Z,82.68
2022-09-06T09:29:29.492Z,83.82
2022-09-06T09:31:58.418Z,84.17
2022-09-06T09:34:36.961Z,85.53
2022-09-06T09:40:25.527Z,87.27
2022-09-06T09:42:54.093Z,87.37
2022-09-06T09:45:24.396Z,88.15
2022-09-06T09:47:52.228Z,88.23
2022-09-06T09:50:32.756Z,87.73
2022-09-06T09:53:14.877Z,88.51
2022-09-06T09:55:43.063Z,90.15
2022-09-06T09:58:22.929Z,89.44
2022-09-06T10:00:50.820Z,89.83
2022-09-06T10:03:20.309Z,90.47
2022-09-06T10:06:02.777Z,90.90
2022-09-06T10:08:32.396Z,93.04
2022-09-06T10:11:00.341Z,93.34
2022-09-06T10:13:31.985Z,90.65
2022-09-06T10:16:00.540Z,89.75
2022-09-06T10:18:36.529Z,89.44
2022-09-06T10:21:14.777Z,91.54
2022-09-06T10:26:51.718Z,90.42
2022-09-06T10:29:34.807Z,90.21
2022-09-06T10:32:17.075Z,91.71
2022-09-06T10:34:50.860Z,86.71
2022-09-06T10:37:42.007Z,86.72
2022-09-06T10:40:11.681Z,87.73
2022-09-06T10:42:41.708Z,87.80
2022-09-06T10:45:24.845Z,87.54
2022-09-06T10:48:14.549Z,85.99
2022-09-06T10:51:03.018Z,85.81
2022-09-06T10:53:56.613Z,89.51
2022-09-06T10:56:53.434Z,88.24
2022-09-06T10:59:37.619Z,86.11
2022-09-06T11:05:40.106Z,88.59
2022-09-06T11:11:21.014Z,83.02
2022-09-06T11:13:49.139Z,82.16
2022-09-06T11:16:28.548Z,82.94
2022-09-06T11:19:06.421Z,81.84
2022-09-06T11:21:53.054Z,78.27
2022-09-06T11:24:58.269Z,79.45
2022-09-06T11:27:31.985Z,78.48
2022-09-06T11:30:00.345Z,80.67
2022-09-06T11:32:39.836Z,82.32
2022-09-06T11:35:11.196Z,80.78
2022-09-06T11:37:50.828Z,81.45
2022-09-06T11:43:00.421Z,81.43
2022-09-06T11:45:49.106Z,81.23
2022-09-06T11:48:35.003Z,78.39
2022-09-06T11:51:04.148Z,80.56
2022-09-06T11:53:33.541Z,81.96
2022-09-06T11:56:01.245Z,83.90
2022-09-06T11:59:02.964Z,82.46
2022-09-06T12:01:30.801Z,81.68
2022-09-06T12:04:06.931Z,81.94
2022-09-06T12:06:36.728Z,82.22
2022-09-06T12:09:25.181Z,82.12
2022-09-06T12:11:54.529Z,82.93
2022-09-06T12:14:29.920Z,83.38
2022-09-06T12:17:00.388Z,82.90
2022-09-06T12:19:50.258Z,83.55
2022-09-06T12:22:38.871Z,84.37
2022-09-06T12:25:09.100Z,83.83
2022-09-06T12:27:40.303Z,84.03
2022-09-06T12:30:13.290Z,82.28
2022-09-06T12:32:48.353Z,81.49
2022-09-06T12:38:15.891Z,81.40
2022-09-06T12:40:49.163Z,79.74
2022-09-06T12:43:18.102Z,82.09
2022-09-06T12:45:49.754Z,83.08
2022-09-06T12:48:38.620Z,83.43
2022-09-06T12:51:08.223Z,85.26
2022-09-06T12:53:36.069Z,84.68
2022-09-06T12:56:16.317Z,85.80
2022-09-06T12:59:18.181Z,86.19
2022-09-06T13:02:07.149Z,86.52
2022-09-06T13:04:43.881Z,86.51
2022-09-06T13:07:14.345Z,85.80
2022-09-06T13:09:44.362Z,86.33
2022-09-06T13:12:36.629Z,85.69
2022-09-06T13:15:18.238Z,85.87
2022-09-06T13:17:46.363Z,86.48
2022-09-06T13:20:29.564Z,87.59
2022-09-06T13:23:09.048Z,89.30
2022-09-06T13:25:36.936Z,90.29
2022-09-06T13:28:04.744Z,89.89
2022-09-06T13:30:35.251Z,90.78
2022-09-06T13:33:03.783Z,91.72
2022-09-06T13:35:33.202Z,92.45
2022-09-06T13:38:23.734Z,92.12
2022-09-06T13:43:46.131Z,91.29
2022-09-06T13:46:14.101Z,91.01
2022-09-06T13:48:42.742Z,90.76
2022-09-06T13:51:10.993Z,90.60
2022-09-06T13:53:38.914Z,91.37
2022-09-06T13:56:09.770Z,92.80
2022-09-06T13:58:37.890Z,93.18
2022-09-06T14:01:09.628Z,94.42
2022-09-06T14:03:38.293Z,93.56
2022-09-06T14:06:06.178Z,91.68
2022-09-06T14:08:49.763Z,91.54
2022-09-06T14:11:21.799Z,90.80
2022-09-06T14:13:49.675Z,92.44
2022-09-06T14:16:17.645Z,93.18
2022-09-06T14:18:46.347Z,92.62
2022-09-06T14:21:14.236Z,92.88
2022-09-06T14:23:42.029Z,93.63
2022-09-06T14:26:11.199Z,93.61
2022-09-06T14:28:38.990Z,93.45
2022-09-06T14:31:20.356Z,93.77
2022-09-06T14:33:48.468Z,95.37
2022-09-06T14:36:18.119Z,94.82
2022-09-06T14:38:46.187Z,94.72
2022-09-06T14:41:17.089Z,94.64
2022-09-06T14:43:45.204Z,94.98
2022-09-06T14:46:14.792Z,95.42
2022-09-06T14:48:43.286Z,96.78
2022-09-06T14:51:23.225Z,96.80
2022-09-06T14:53:53.163Z,95.78
2022-09-06T14:56:21.098Z,96.36
2022-09-06T14:58:49.151Z,97.10
2022-09-06T15:01:19.503Z,98.84
2022-09-06T15:03:49.757Z,97.82
2022-09-06T15:06:17.777Z,95.61
2022-09-06T15:08:45.727Z,96.33
2022-09-06T15:11:13.628Z,95.49
2022-09-06T15:13:41.637Z,94.98
2022-09-06T15:16:10.617Z,94.81
2022-09-06T15:18:38.496Z,94.64
2022-09-06T15:21:13.044Z,95.42
2022-09-06T15:23:41.218Z,95.43
2022-09-06T15:26:09.611Z,95.03
2022-09-06T15:28:38.375Z,95.04
2022-09-06T15:31:07.084Z,95.34
2022-09-06T15:33:36.140Z,95.47
2022-09-06T15:36:07.480Z,95.03
2022-09-06T15:38:40.962Z,95.82
2022-09-06T15:41:10.466Z,96.05
2022-09-06T15:43:43.363Z,96.76
2022-09-06T15:46:11.313Z,96.85
2022-09-06T15:48:55.779Z,95.84
2022-09-06T15:51:23.562Z,96.01
2022-09-06T15:53:51.425Z,95.94
2022-09-06T15:56:19.479Z,95.93
2022-09-06T15:58:47.397Z,96.87
2022-09-06T16:01:19.912Z,97.67
2022-09-06T16:03:50.220Z,98.26
2022-09-06T16:06:26.477Z,98.16
2022-09-06T16:09:02.723Z,98.34
2022-09-06T16:11:31.190Z,98.57
2022-09-06T16:13:59.073Z,98.49
2022-09-06T16:16:26.990Z,98.78
2022-09-06T16:18:54.905Z,98.75
2022-09-06T16:21:25.581Z,98.96
2022-09-06T16:23:58.167Z,98.62
2022-09-06T16:26:26.879Z,99.44
2022-09-06T16:28:54.973Z,98.82
2022-09-06T16:31:22.928Z,99.84
2022-09-06T16:33:51.325Z,99.10
2022-09-06T16:36:19.974Z,99.28
2022-09-06T16:38:48.168Z,99.51
2022-09-06T16:41:34.591Z,99.37
2022-09-06T16:44:02.746Z,100.00
2022-09-06T16:46:30.861Z,100.00
2022-09-06T16:49:04.341Z,100.00
2022-09-06T16:51:38.525Z,100.00
2022-09-06T16:54:06.782Z,99.83
2022-09-06T16:56:37.067Z,100.00
2022-09-06T16:59:06.758Z,100.00
2022-09-06T17:01:35.118Z,99.97
2022-09-06T17:04:03.640Z,99.78
2022-09-06T17:06:31.840Z,100.00
2022-09-06T17:08:59.965Z,100.00
2022-09-06T17:11:29.219Z,100.00
2022-09-06T17:13:58.251Z,100.00
2022-09-06T17:16:45.348Z,100.00
2022-09-06T17:19:15.040Z,100.00
2022-09-06T17:21:43.623Z,100.00
2022-09-06T17:24:11.906Z,100.00
2022-09-06T17:26:40.306Z,100.00
2022-09-06T17:29:08.400Z,100.00
2022-09-06T17:31:40.245Z,100.00
2022-09-06T17:34:08.934Z,100.00
2022-09-06T17:36:37.727Z,100.00
2022-09-06T17:39:11.291Z,100.00
2022-09-06T17:41:54.824Z,100.00
2022-09-06T17:44:27.809Z,100.00
2022-09-06T17:47:12.371Z,100.00
2022-09-06T17:49:41.029Z,100.00
2022-09-06T17:52:09.260Z,100.00
2022-09-06T17:54:37.139Z,100.00
2022-09-06T17:59:39.496Z,100.00
2022-09-06T18:02:07.287Z,100.00
2022-09-06T18:04:37.924Z,100.00
2022-09-06T18:07:18.572Z,100.00
2022-09-06T18:09:46.468Z,100.00
2022-09-06T18:12:18.706Z,100.00
2022-09-06T18:14:51.522Z,100.00
2022-09-06T18:17:25.230Z,100.00
2022-09-06T18:19:53.985Z,100.00
2022-09-06T18:22:21.825Z,100.00
2022-09-06T18:24:49.850Z,100.00
2022-09-06T18:27:17.776Z,100.00
2022-09-06T18:29:45.639Z,100.00
2022-09-06T18:32:14.434Z,100.00
2022-09-06T18:34:42.309Z,100.00
2022-09-06T18:37:15.881Z,100.00
2022-09-06T18:39:43.750Z,100.00
2022-09-06T18:42:12.519Z,100.00
2022-09-06T18:44:40.559Z,100.00
2022-09-06T18:47:09.286Z,100.00
2022-09-06T18:49:41.793Z,100.00
2022-09-06T18:52:12.159Z,100.00
2022-09-06T18:54:40.114Z,100.00
2022-09-06T18:57:08.375Z,100.00
2022-09-06T18:59:36.255Z,100.00
2022-09-06T19:02:04.304Z,100.00
2022-09-06T19:04:32.487Z,100.00
2022-09-06T19:07:02.827Z,100.00
2022-09-06T19:09:30.726Z,100.00
2022-09-06T19:11:58.690Z,100.00
2022-09-06T19:14:26.867Z,100.00
2022-09-06T19:16:55.523Z,100.00
2022-09-06T19:19:24.341Z,100.00
2022-09-06T19:21:52.222Z,100.00
2022-09-06T19:24:23.704Z,100.00
2022-09-06T19:26:51.673Z,100.00
2022-09-06T19:29:19.973Z,100.00
2022-09-06T19:31:48.343Z,100.00
2022-09-06T19:34:17.009Z,100.00
2022-09-06T19:36:45.863Z,100.00
2022-09-06T19:39:16.448Z,100.00
2022-09-06T19:41:46.057Z,100.00
2022-09-06T19:44:14.973Z,100.00
2022-09-06T19:46:45.895Z,100.00
2022-09-06T19:49:15.606Z,100.00
2022-09-06T19:51:45.005Z,100.00
2022-09-06T19:54:13.047Z,100.00
2022-09-06T19:56:40.947Z,100.00
2022-09-06T19:59:09.887Z,100.00
2022-09-06T20:01:38.572Z,100.00
2022-09-06T20:04:08.317Z,100.00
2022-09-06T20:06:36.567Z,100.00
2022-09-06T20:09:10.139Z,100.00
2022-09-06T20:11:43.105Z,100.00
2022-09-06T20:14:12.035Z,100.00
2022-09-06T20:16:43.114Z,100.00
2022-09-06T20:19:12.223Z,100.00
2022-09-06T20:21:45.223Z,100.00
2022-09-06T20:24:13.274Z,100.00
2022-09-06T20:26:41.975Z,100.00
2022-09-06T20:29:10.059Z,100.00
2022-09-06T20:31:38.303Z,100.00
2022-09-06T20:34:06.768Z,100.00
2022-09-06T20:43:28.991Z,100.00
2022-09-06T20:45:57.157Z,100.00
2022-09-06T20:48:25.015Z,100.00
2022-09-06T20:51:03.284Z,100.00
2022-09-06T20:53:31.619Z,100.00
2022-09-06T20:56:05.254Z,100.00
2022-09-06T20:58:33.516Z,100.00
2022-09-06T21:01:01.370Z,100.00
2022-09-06T21:03:29.283Z,100.00
2022-09-06T21:05:57.321Z,100.00
2022-09-06T21:08:25.224Z,100.00
2022-09-06T21:11:02.067Z,100.00
2022-09-06T21:13:30.249Z,100.00
2022-09-06T21:15:59.192Z,100.00
2022-09-06T21:18:27.925Z,100.00
2022-09-06T21:21:02.899Z,100.00
2022-09-06T21:23:31.704Z,100.00
2022-09-06T21:26:01.136Z,100.00
2022-09-06T21:28:33.683Z,100.00
2022-09-06T21:31:23.574Z,100.00
2022-09-06T21:33:55.352Z,100.00
2022-09-06T21:36:25.177Z,100.00
2022-09-06T21:38:56.834Z,100.00
2022-09-06T21:41:25.328Z,100.00
2022-09-06T21:43:54.153Z,100.00
2022-09-06T21:46:22.588Z,100.00
2022-09-06T21:48:51.764Z,100.00
2022-09-06T21:51:22.780Z,100.00
2022-09-06T21:53:51.598Z,100.00
2022-09-06T21:56:24.908Z,100.00
2022-09-06T21:58:54.054Z,100.00
2022-09-06T22:01:22.655Z,100.00
2022-09-06T22:03:50.773Z,100.00
2022-09-06T22:06:20.214Z,100.00
2022-09-06T22:08:48.357Z,100.00
2022-09-06T22:11:18.376Z,100.00
2022-09-06T22:13:46.477Z,100.00
2022-09-06T22:16:17.352Z,100.00
2022-09-06T22:18:46.058Z,100.00
2022-09-06T22:21:24.386Z,100.00
2022-09-06T22:23:56.813Z,100.00
2022-09-06T22:26:25.484Z,100.00
2022-09-06T22:28:57.719Z,100.00
2022-09-06T22:31:25.968Z,100.00
2022-09-06T22:33:54.070Z,100.00
2022-09-06T22:36:22.217Z,100.00
2022-09-06T22:38:50.087Z,100.00
2022-09-06T22:41:17.899Z,100.00
2022-09-06T22:43:45.722Z,100.00
2022-09-06T22:46:16.266Z,100.00
2022-09-06T22:48:44.111Z,100.00
2022-09-06T22:51:11.950Z,100.00
2022-09-06T22:53:40.013Z,100.00
2022-09-06T22:56:07.974Z,100.00
2022-09-06T22:58:36.621Z,100.00
2022-09-06T23:01:12.368Z,100.00
2022-09-06T23:03:40.276Z,100.00
2022-09-06T23:06:08.227Z,100.00
2022-09-06T23:08:37.273Z,100.00
2022-09-06T23:11:13.552Z,100.00
2022-09-06T23:13:44.761Z,100.00
2022-09-06T23:16:15.050Z,100.00
2022-09-06T23:18:42.979Z,100.00
2022-09-06T23:21:12.783Z,100.00
2022-09-06T23:23:43.344Z,100.00
2022-09-06T23:26:13.145Z,100.00
2022-09-06T23:28:41.005Z,100.00
2022-09-06T23:31:10.143Z,100.00
2022-09-06T23:33:38.408Z,100.00
2022-09-06T23:36:06.839Z,100.00
2022-09-06T23:38:35.360Z,100.00
2022-09-06T23:41:03.500Z,100.00
2022-09-06T23:43:31.569Z,100.00
2022-09-06T23:45:59.663Z,100.00
2022-09-06T23:48:27.441Z,100.00
2022-09-06T23:50:55.227Z,100.00
2022-09-06T23:53:23.085Z,100.00
2022-09-06T23:55:51.069Z,100.00
2022-09-06T23:58:18.920Z,100.00
